N694PB KDCA-KEKX
Flight info
| Callsign | N694PB |
|---|---|
| Flight time | N/A |
| Altitude | 24000 |
| Route | OTTTO Q176 COLNS J6 HVQ J78 IIU |
| Aircraft | TBM9/L-SDFGRWY/L |
Departure
| Time | 2026-05-01 11:05 |
|---|---|
| Airport | Ronald Reagan Washington National Airport (KDCA) |
Arrival
| Time | N/A |
|---|---|
| Airport | Addington Field / Elizabethtown Regional Airport (KEKX) |
| Time | Latitude | Longitude | Altitude | Speed | Heading |
|---|---|---|---|---|---|
| 2026-05-01 10:55 | 38.84499 | -77.04594 | 19 ft | 0 kts | 152° |
| 2026-05-01 11:01 | 38.84498 | -77.04593 | 19 ft | 2 kts | 140° |
| 2026-05-01 11:01 | 38.84540 | -77.04579 | 19 ft | 13 kts | 5° |
| 2026-05-01 11:01 | 38.84620 | -77.04497 | 19 ft | 16 kts | 51° |
| 2026-05-01 11:02 | 38.84630 | -77.04400 | 19 ft | 12 kts | 140° |
| 2026-05-01 11:02 | 38.84568 | -77.04319 | 19 ft | 13 kts | 109° |
| 2026-05-01 11:02 | 38.84576 | -77.04196 | 19 ft | 15 kts | 77° |
| 2026-05-01 11:02 | 38.84526 | -77.04139 | 19 ft | 12 kts | 172° |
| 2026-05-01 11:03 | 38.84439 | -77.04122 | 19 ft | 13 kts | 171° |
| 2026-05-01 11:03 | 38.84377 | -77.04084 | 20 ft | 9 kts | 94° |
| 2026-05-01 11:03 | 38.84380 | -77.04002 | 21 ft | 9 kts | 85° |
| 2026-05-01 11:03 | 38.84384 | -77.03913 | 20 ft | 11 kts | 87° |
| 2026-05-01 11:04 | 38.84391 | -77.03799 | 19 ft | 14 kts | 88° |
| 2026-05-01 11:04 | 38.84446 | -77.03709 | 19 ft | 15 kts | 12° |
| 2026-05-01 11:04 | 38.84684 | -77.03729 | 19 ft | 61 kts | 358° |
| 2026-05-01 11:04 | 38.85277 | -77.03785 | 51 ft | 105 kts | 355° |
| 2026-05-01 11:05 | 38.86100 | -77.03866 | 191 ft | 134 kts | 356° |
| 2026-05-01 11:05 | 38.87124 | -77.04066 | 285 ft | 165 kts | 337° |
| 2026-05-01 11:05 | 38.88056 | -77.04973 | 710 ft | 169 kts | 319° |
| 2026-05-01 11:05 | 38.88950 | -77.05937 | 1291 ft | 166 kts | 322° |
| 2026-05-01 11:06 | 38.89815 | -77.06889 | 1880 ft | 162 kts | 317° |
| 2026-05-01 11:06 | 38.90441 | -77.08103 | 2409 ft | 165 kts | 301° |
| 2026-05-01 11:06 | 38.90985 | -77.09411 | 2876 ft | 166 kts | 304° |
| 2026-05-01 11:07 | 38.92519 | -77.11480 | 3928 ft | 161 kts | 332° |
| 2026-05-01 11:07 | 38.93489 | -77.12210 | 4419 ft | 162 kts | 330° |
| 2026-05-01 11:07 | 38.94452 | -77.12959 | 4925 ft | 162 kts | 330° |
| 2026-05-01 11:07 | 38.95422 | -77.13709 | 5383 ft | 164 kts | 327° |
| 2026-05-01 11:08 | 38.96257 | -77.14709 | 5836 ft | 166 kts | 310° |
| 2026-05-01 11:08 | 38.96832 | -77.16004 | 6315 ft | 170 kts | 295° |
| 2026-05-01 11:08 | 38.97332 | -77.18994 | 7176 ft | 173 kts | 286° |
| 2026-05-01 11:09 | 38.97566 | -77.20518 | 7610 ft | 174 kts | 285° |
| 2026-05-01 11:09 | 38.97798 | -77.22070 | 8050 ft | 175 kts | 285° |
| 2026-05-01 11:09 | 38.98026 | -77.23594 | 8461 ft | 177 kts | 284° |
| 2026-05-01 11:10 | 38.98468 | -77.26734 | 9335 ft | 180 kts | 277° |
| 2026-05-01 11:10 | 38.98354 | -77.28348 | 9774 ft | 184 kts | 260° |
| 2026-05-01 11:10 | 38.97902 | -77.29898 | 10196 ft | 186 kts | 251° |
| 2026-05-01 11:10 | 38.97412 | -77.31431 | 10620 ft | 185 kts | 252° |
| 2026-05-01 11:11 | 38.96929 | -77.32957 | 11045 ft | 184 kts | 252° |
| 2026-05-01 11:11 | 38.96445 | -77.34472 | 11465 ft | 183 kts | 252° |
| 2026-05-01 11:11 | 38.95961 | -77.35984 | 11891 ft | 182 kts | 252° |
| 2026-05-01 11:11 | 38.95480 | -77.37489 | 12321 ft | 182 kts | 252° |
| 2026-05-01 11:12 | 38.95000 | -77.38988 | 12742 ft | 181 kts | 252° |
| 2026-05-01 11:12 | 38.94522 | -77.40483 | 13177 ft | 181 kts | 252° |
| 2026-05-01 11:12 | 38.94046 | -77.41972 | 13611 ft | 180 kts | 252° |
| 2026-05-01 11:12 | 38.93570 | -77.43455 | 14018 ft | 180 kts | 252° |
| 2026-05-01 11:13 | 38.93094 | -77.44938 | 14388 ft | 179 kts | 252° |
| 2026-05-01 11:13 | 38.92619 | -77.46418 | 14754 ft | 179 kts | 252° |
| 2026-05-01 11:13 | 38.92145 | -77.47896 | 15127 ft | 179 kts | 252° |
| 2026-05-01 11:13 | 38.91671 | -77.49373 | 15492 ft | 179 kts | 252° |
| 2026-05-01 11:14 | 38.91197 | -77.50848 | 15859 ft | 179 kts | 253° |
| 2026-05-01 11:14 | 38.90723 | -77.52322 | 16214 ft | 178 kts | 253° |
| 2026-05-01 11:14 | 38.90250 | -77.53792 | 16594 ft | 178 kts | 253° |
| 2026-05-01 11:14 | 38.89779 | -77.55257 | 16969 ft | 178 kts | 253° |
| 2026-05-01 11:15 | 38.89307 | -77.56722 | 17334 ft | 178 kts | 253° |
| 2026-05-01 11:15 | 38.88886 | -77.58204 | 17707 ft | 175 kts | 259° |
| 2026-05-01 11:15 | 38.88657 | -77.59735 | 18062 ft | 175 kts | 263° |
| 2026-05-01 11:15 | 38.88437 | -77.61280 | 18386 ft | 176 kts | 263° |
| 2026-05-01 11:16 | 38.88213 | -77.62830 | 18694 ft | 177 kts | 263° |
| 2026-05-01 11:16 | 38.87992 | -77.64385 | 18999 ft | 177 kts | 263° |
| 2026-05-01 11:16 | 38.87770 | -77.65943 | 19312 ft | 178 kts | 263° |
| 2026-05-01 11:16 | 38.87548 | -77.67505 | 19605 ft | 178 kts | 263° |
| 2026-05-01 11:17 | 38.87325 | -77.69073 | 19911 ft | 179 kts | 262° |
| 2026-05-01 11:17 | 38.87102 | -77.70639 | 20222 ft | 179 kts | 262° |
| 2026-05-01 11:17 | 38.86877 | -77.72216 | 20532 ft | 180 kts | 262° |
| 2026-05-01 11:17 | 38.86728 | -77.73262 | 20741 ft | 180 kts | 262° |
| 2026-05-01 11:18 | 38.86501 | -77.74846 | 21049 ft | 181 kts | 262° |
| 2026-05-01 11:18 | 38.86273 | -77.76435 | 21369 ft | 181 kts | 262° |
| 2026-05-01 11:18 | 38.86045 | -77.78028 | 21669 ft | 182 kts | 262° |
| 2026-05-01 11:18 | 38.85817 | -77.79626 | 21987 ft | 182 kts | 262° |
| 2026-05-01 11:19 | 38.85587 | -77.81228 | 22283 ft | 183 kts | 262° |
| 2026-05-01 11:19 | 38.85356 | -77.82839 | 22581 ft | 184 kts | 262° |
| 2026-05-01 11:19 | 38.85123 | -77.84455 | 22889 ft | 185 kts | 262° |
| 2026-05-01 11:19 | 38.84890 | -77.86077 | 23195 ft | 185 kts | 261° |
| 2026-05-01 11:20 | 38.84657 | -77.87705 | 23499 ft | 186 kts | 262° |
| 2026-05-01 11:20 | 38.84558 | -77.89356 | 23777 ft | 186 kts | 270° |
| 2026-05-01 11:20 | 38.84611 | -77.91019 | 23991 ft | 189 kts | 271° |
| 2026-05-01 11:20 | 38.84660 | -77.92752 | 23996 ft | 199 kts | 271° |
| 2026-05-01 11:21 | 38.84711 | -77.94569 | 24004 ft | 208 kts | 271° |
| 2026-05-01 11:21 | 38.84768 | -77.96453 | 24004 ft | 215 kts | 271° |
| 2026-05-01 11:21 | 38.84828 | -77.98401 | 24002 ft | 221 kts | 271° |
| 2026-05-01 11:21 | 38.84886 | -78.00387 | 24001 ft | 225 kts | 271° |
| 2026-05-01 11:22 | 38.84943 | -78.02404 | 24000 ft | 228 kts | 271° |
| 2026-05-01 11:22 | 38.85001 | -78.04453 | 23994 ft | 232 kts | 271° |
| 2026-05-01 11:22 | 38.85062 | -78.06550 | 23995 ft | 238 kts | 271° |
| 2026-05-01 11:22 | 38.85125 | -78.08683 | 23996 ft | 241 kts | 271° |
| 2026-05-01 11:23 | 38.85188 | -78.10839 | 23990 ft | 243 kts | 271° |
| 2026-05-01 11:23 | 38.85247 | -78.13010 | 23984 ft | 244 kts | 271° |
| 2026-05-01 11:23 | 38.85308 | -78.15181 | 23991 ft | 244 kts | 271° |
| 2026-05-01 11:23 | 38.85367 | -78.17363 | 23989 ft | 246 kts | 271° |
| 2026-05-01 11:24 | 38.85428 | -78.19556 | 23984 ft | 246 kts | 271° |
| 2026-05-01 11:24 | 38.85451 | -78.21745 | 23989 ft | 246 kts | 269° |
| 2026-05-01 11:24 | 38.85393 | -78.26154 | 23987 ft | 248 kts | 269° |
| 2026-05-01 11:25 | 38.85376 | -78.28365 | 23986 ft | 248 kts | 269° |
| 2026-05-01 11:25 | 38.85329 | -78.32796 | 23985 ft | 249 kts | 269° |
| 2026-05-01 11:25 | 38.85304 | -78.35013 | 23984 ft | 249 kts | 269° |
| 2026-05-01 11:26 | 38.85280 | -78.37227 | 23983 ft | 248 kts | 269° |
| 2026-05-01 11:26 | 38.85228 | -78.41667 | 23979 ft | 249 kts | 269° |
| 2026-05-01 11:26 | 38.85202 | -78.43886 | 23978 ft | 249 kts | 269° |
| 2026-05-01 11:27 | 38.85174 | -78.46099 | 23988 ft | 248 kts | 269° |
| 2026-05-01 11:27 | 38.85147 | -78.48315 | 23988 ft | 249 kts | 269° |
| 2026-05-01 11:27 | 38.85123 | -78.50536 | 23986 ft | 249 kts | 269° |
| 2026-05-01 11:27 | 38.85094 | -78.52757 | 23984 ft | 249 kts | 269° |
| 2026-05-01 11:28 | 38.85065 | -78.54976 | 23983 ft | 249 kts | 269° |
| 2026-05-01 11:28 | 38.85037 | -78.57196 | 23982 ft | 249 kts | 269° |
| 2026-05-01 11:28 | 38.85008 | -78.59414 | 23982 ft | 249 kts | 269° |
| 2026-05-01 11:29 | 38.84948 | -78.63847 | 23984 ft | 249 kts | 269° |
| 2026-05-01 11:29 | 38.84917 | -78.66061 | 23985 ft | 248 kts | 269° |
| 2026-05-01 11:29 | 38.84857 | -78.70491 | 23988 ft | 248 kts | 269° |
| 2026-05-01 11:30 | 38.84824 | -78.72707 | 23990 ft | 249 kts | 269° |
| 2026-05-01 11:30 | 38.84792 | -78.74927 | 23988 ft | 249 kts | 269° |
| 2026-05-01 11:30 | 38.84760 | -78.77148 | 23986 ft | 249 kts | 269° |
| 2026-05-01 11:30 | 38.84727 | -78.79367 | 23988 ft | 249 kts | 269° |
| 2026-05-01 11:31 | 38.84698 | -78.81579 | 23993 ft | 248 kts | 269° |
| 2026-05-01 11:31 | 38.84659 | -78.83797 | 23985 ft | 249 kts | 269° |
| 2026-05-01 11:31 | 38.84623 | -78.85982 | 23992 ft | 249 kts | 269° |
| 2026-05-01 11:31 | 38.84592 | -78.88204 | 23990 ft | 249 kts | 269° |
| 2026-05-01 11:32 | 38.84557 | -78.90423 | 23985 ft | 249 kts | 269° |
| 2026-05-01 11:32 | 38.84522 | -78.92639 | 23988 ft | 249 kts | 269° |
| 2026-05-01 11:32 | 38.84485 | -78.94857 | 23987 ft | 249 kts | 269° |
| 2026-05-01 11:32 | 38.84450 | -78.97080 | 23987 ft | 249 kts | 269° |
| 2026-05-01 11:33 | 38.84415 | -78.99306 | 23987 ft | 250 kts | 269° |
| 2026-05-01 11:33 | 38.84377 | -79.01534 | 23985 ft | 250 kts | 269° |
| 2026-05-01 11:33 | 38.84338 | -79.03764 | 23984 ft | 250 kts | 269° |
| 2026-05-01 11:33 | 38.84301 | -79.05996 | 23987 ft | 251 kts | 269° |
| 2026-05-01 11:34 | 38.84263 | -79.08234 | 23982 ft | 250 kts | 268° |
| 2026-05-01 11:34 | 38.84222 | -79.10459 | 23988 ft | 250 kts | 269° |
| 2026-05-01 11:34 | 38.84183 | -79.12680 | 23984 ft | 248 kts | 269° |
| 2026-05-01 11:34 | 38.84146 | -79.14888 | 23988 ft | 247 kts | 269° |
| 2026-05-01 11:35 | 38.84113 | -79.17089 | 23992 ft | 247 kts | 269° |
| 2026-05-01 11:35 | 38.84033 | -79.19289 | 23984 ft | 247 kts | 265° |
| 2026-05-01 11:35 | 38.83748 | -79.21456 | 23986 ft | 247 kts | 260° |
| 2026-05-01 11:35 | 38.83350 | -79.23603 | 23985 ft | 247 kts | 260° |
| 2026-05-01 11:36 | 38.82971 | -79.25753 | 23987 ft | 247 kts | 260° |
| 2026-05-01 11:36 | 38.82590 | -79.27898 | 23986 ft | 247 kts | 260° |
| 2026-05-01 11:36 | 38.82204 | -79.30044 | 23985 ft | 247 kts | 260° |
| 2026-05-01 11:36 | 38.81818 | -79.32180 | 23991 ft | 246 kts | 260° |
| 2026-05-01 11:37 | 38.81437 | -79.34307 | 23996 ft | 244 kts | 259° |
| 2026-05-01 11:37 | 38.81054 | -79.36436 | 23993 ft | 246 kts | 260° |
| 2026-05-01 11:37 | 38.80671 | -79.38570 | 23990 ft | 246 kts | 259° |
| 2026-05-01 11:37 | 38.80285 | -79.40706 | 23992 ft | 245 kts | 260° |
| 2026-05-01 11:38 | 38.79901 | -79.42836 | 24002 ft | 245 kts | 259° |
| 2026-05-01 11:38 | 38.79515 | -79.44969 | 24001 ft | 246 kts | 259° |
| 2026-05-01 11:38 | 38.79129 | -79.47104 | 23999 ft | 246 kts | 259° |
| 2026-05-01 11:38 | 38.78740 | -79.49242 | 24002 ft | 247 kts | 259° |
| 2026-05-01 11:39 | 38.78352 | -79.51386 | 23998 ft | 247 kts | 259° |
| 2026-05-01 11:39 | 38.77962 | -79.53531 | 23998 ft | 247 kts | 259° |
| 2026-05-01 11:39 | 38.77572 | -79.55675 | 24000 ft | 247 kts | 259° |
| 2026-05-01 11:39 | 38.77183 | -79.57820 | 23997 ft | 247 kts | 259° |
| 2026-05-01 11:40 | 38.76793 | -79.59960 | 23997 ft | 246 kts | 259° |
| 2026-05-01 11:40 | 38.76407 | -79.62097 | 23999 ft | 247 kts | 259° |
| 2026-05-01 11:40 | 38.76013 | -79.64232 | 23998 ft | 246 kts | 259° |
| 2026-05-01 11:40 | 38.75620 | -79.66371 | 23992 ft | 246 kts | 259° |
| 2026-05-01 11:41 | 38.75227 | -79.68509 | 23993 ft | 246 kts | 259° |
| 2026-05-01 11:41 | 38.74840 | -79.70642 | 23996 ft | 246 kts | 260° |
| 2026-05-01 11:41 | 38.74451 | -79.72776 | 23998 ft | 246 kts | 259° |
| 2026-05-01 11:41 | 38.74058 | -79.74901 | 23998 ft | 245 kts | 259° |
| 2026-05-01 11:42 | 38.73666 | -79.77032 | 23998 ft | 246 kts | 259° |
| 2026-05-01 11:42 | 38.73275 | -79.79159 | 23999 ft | 245 kts | 259° |
| 2026-05-01 11:42 | 38.72884 | -79.81290 | 23997 ft | 246 kts | 259° |
| 2026-05-01 11:42 | 38.72490 | -79.83418 | 24002 ft | 246 kts | 259° |
| 2026-05-01 11:43 | 38.72098 | -79.85544 | 23998 ft | 245 kts | 259° |
| 2026-05-01 11:43 | 38.71706 | -79.87669 | 24002 ft | 246 kts | 259° |
| 2026-05-01 11:43 | 38.71312 | -79.89804 | 23996 ft | 246 kts | 259° |
| 2026-05-01 11:44 | 38.70520 | -79.94058 | 24003 ft | 246 kts | 259° |
| 2026-05-01 11:44 | 38.70125 | -79.96193 | 24002 ft | 246 kts | 259° |
| 2026-05-01 11:44 | 38.69732 | -79.98329 | 24000 ft | 246 kts | 259° |
| 2026-05-01 11:44 | 38.69333 | -80.00460 | 23980 ft | 245 kts | 259° |
| 2026-05-01 11:45 | 38.68940 | -80.02574 | 23996 ft | 244 kts | 259° |
| 2026-05-01 11:45 | 38.68552 | -80.04650 | 24003 ft | 243 kts | 259° |
| 2026-05-01 11:45 | 38.68160 | -80.06749 | 24004 ft | 242 kts | 259° |
| 2026-05-01 11:45 | 38.67769 | -80.08839 | 23998 ft | 242 kts | 259° |
| 2026-05-01 11:46 | 38.67381 | -80.10931 | 23998 ft | 242 kts | 259° |
| 2026-05-01 11:46 | 38.66988 | -80.13022 | 23994 ft | 242 kts | 259° |
| 2026-05-01 11:46 | 38.66594 | -80.15110 | 24004 ft | 242 kts | 259° |
| 2026-05-01 11:46 | 38.66203 | -80.17204 | 24000 ft | 242 kts | 259° |
| 2026-05-01 11:47 | 38.65811 | -80.19296 | 23995 ft | 242 kts | 259° |
| 2026-05-01 11:47 | 38.65419 | -80.21382 | 23995 ft | 242 kts | 259° |
| 2026-05-01 11:47 | 38.65025 | -80.23471 | 23992 ft | 241 kts | 259° |
| 2026-05-01 11:47 | 38.64631 | -80.25556 | 23991 ft | 241 kts | 259° |
| 2026-05-01 11:48 | 38.64238 | -80.27639 | 23991 ft | 241 kts | 259° |
| 2026-05-01 11:48 | 38.63846 | -80.29727 | 23990 ft | 241 kts | 259° |
| 2026-05-01 11:48 | 38.63452 | -80.31811 | 23985 ft | 241 kts | 259° |
| 2026-05-01 11:48 | 38.63055 | -80.33894 | 23995 ft | 241 kts | 259° |
| 2026-05-01 11:49 | 38.62661 | -80.35977 | 23992 ft | 241 kts | 259° |
| 2026-05-01 11:49 | 38.62268 | -80.38056 | 23996 ft | 240 kts | 259° |
| 2026-05-01 11:49 | 38.61873 | -80.40132 | 23997 ft | 240 kts | 259° |
| 2026-05-01 11:49 | 38.61478 | -80.42211 | 23991 ft | 241 kts | 259° |
| 2026-05-01 11:50 | 38.61083 | -80.44292 | 23987 ft | 241 kts | 259° |
| 2026-05-01 11:50 | 38.60685 | -80.46375 | 23982 ft | 241 kts | 259° |
| 2026-05-01 11:50 | 38.60287 | -80.48464 | 23986 ft | 242 kts | 259° |
| 2026-05-01 11:50 | 38.59889 | -80.50555 | 23979 ft | 242 kts | 259° |
| 2026-05-01 11:51 | 38.59490 | -80.52646 | 23984 ft | 242 kts | 259° |
| 2026-05-01 11:51 | 38.59090 | -80.54732 | 23990 ft | 241 kts | 259° |
| 2026-05-01 11:51 | 38.58693 | -80.56812 | 23980 ft | 241 kts | 259° |
| 2026-05-01 11:51 | 38.58294 | -80.58887 | 23981 ft | 241 kts | 259° |
| 2026-05-01 11:52 | 38.57895 | -80.60958 | 23990 ft | 240 kts | 259° |
| 2026-05-01 11:52 | 38.57500 | -80.63030 | 23984 ft | 240 kts | 259° |
| 2026-05-01 11:52 | 38.57107 | -80.65072 | 23985 ft | 240 kts | 259° |
| 2026-05-01 11:52 | 38.56708 | -80.67141 | 23974 ft | 240 kts | 259° |
| 2026-05-01 11:53 | 38.56311 | -80.69209 | 23987 ft | 240 kts | 259° |
| 2026-05-01 11:53 | 38.55913 | -80.71274 | 23983 ft | 239 kts | 259° |
| 2026-05-01 11:53 | 38.55511 | -80.73341 | 23987 ft | 239 kts | 259° |
| 2026-05-01 11:53 | 38.55116 | -80.75404 | 23982 ft | 239 kts | 259° |
| 2026-05-01 11:54 | 38.54716 | -80.77468 | 23983 ft | 239 kts | 259° |
| 2026-05-01 11:54 | 38.54315 | -80.79534 | 23982 ft | 239 kts | 259° |
| 2026-05-01 11:54 | 38.53916 | -80.81595 | 23985 ft | 239 kts | 259° |
| 2026-05-01 11:54 | 38.53517 | -80.83655 | 23985 ft | 239 kts | 259° |
| 2026-05-01 11:55 | 38.53117 | -80.85715 | 23985 ft | 238 kts | 259° |
| 2026-05-01 11:55 | 38.52720 | -80.87759 | 23986 ft | 237 kts | 259° |
| 2026-05-01 11:55 | 38.52323 | -80.89797 | 23982 ft | 236 kts | 259° |
| 2026-05-01 11:55 | 38.51927 | -80.91831 | 23988 ft | 236 kts | 259° |
| 2026-05-01 11:56 | 38.51531 | -80.93863 | 23981 ft | 236 kts | 259° |
| 2026-05-01 11:56 | 38.51133 | -80.95893 | 23979 ft | 236 kts | 259° |
| 2026-05-01 11:56 | 38.50736 | -80.97924 | 23980 ft | 236 kts | 259° |
| 2026-05-01 11:56 | 38.50340 | -80.99956 | 23979 ft | 236 kts | 259° |
| 2026-05-01 11:57 | 38.49944 | -81.01985 | 23977 ft | 236 kts | 259° |
| 2026-05-01 11:57 | 38.49681 | -81.03328 | 23979 ft | 236 kts | 259° |
| 2026-05-01 11:57 | 38.49152 | -81.06016 | 23979 ft | 235 kts | 259° |
| 2026-05-01 11:57 | 38.48754 | -81.08044 | 23980 ft | 235 kts | 259° |
| 2026-05-01 11:58 | 38.48358 | -81.10068 | 23980 ft | 235 kts | 259° |
| 2026-05-01 11:58 | 38.47960 | -81.12095 | 23981 ft | 235 kts | 259° |
| 2026-05-01 11:58 | 38.47161 | -81.16139 | 23981 ft | 235 kts | 259° |
| 2026-05-01 11:59 | 38.46764 | -81.18165 | 23980 ft | 235 kts | 259° |
| 2026-05-01 11:59 | 38.46365 | -81.20189 | 23980 ft | 235 kts | 258° |
| 2026-05-01 11:59 | 38.45960 | -81.22211 | 23977 ft | 235 kts | 258° |
| 2026-05-01 12:00 | 38.45161 | -81.26257 | 23977 ft | 235 kts | 259° |
| 2026-05-01 12:00 | 38.44762 | -81.28277 | 23980 ft | 235 kts | 258° |
| 2026-05-01 12:00 | 38.43957 | -81.32321 | 23980 ft | 235 kts | 258° |
| 2026-05-01 12:01 | 38.43556 | -81.34344 | 23979 ft | 236 kts | 258° |
| 2026-05-01 12:01 | 38.43152 | -81.36373 | 23977 ft | 236 kts | 258° |
| 2026-05-01 12:01 | 38.42748 | -81.38403 | 23975 ft | 236 kts | 258° |
| 2026-05-01 12:01 | 38.42343 | -81.40435 | 23974 ft | 236 kts | 258° |
| 2026-05-01 12:02 | 38.41937 | -81.42464 | 23978 ft | 236 kts | 258° |
| 2026-05-01 12:02 | 38.41532 | -81.44492 | 23978 ft | 236 kts | 258° |
| 2026-05-01 12:02 | 38.41126 | -81.46518 | 23975 ft | 236 kts | 258° |
| 2026-05-01 12:02 | 38.40720 | -81.48544 | 23975 ft | 236 kts | 258° |
| 2026-05-01 12:03 | 38.40315 | -81.50573 | 23975 ft | 236 kts | 258° |
| 2026-05-01 12:03 | 38.39908 | -81.52599 | 23969 ft | 236 kts | 258° |
| 2026-05-01 12:03 | 38.39502 | -81.54622 | 23969 ft | 236 kts | 258° |
| 2026-05-01 12:03 | 38.39095 | -81.56649 | 23988 ft | 236 kts | 258° |
| 2026-05-01 12:04 | 38.38825 | -81.57990 | 23990 ft | 236 kts | 258° |
| 2026-05-01 12:04 | 38.38417 | -81.60014 | 23987 ft | 236 kts | 258° |
| 2026-05-01 12:04 | 38.38010 | -81.62041 | 23986 ft | 236 kts | 258° |
| 2026-05-01 12:04 | 38.37601 | -81.64063 | 23988 ft | 236 kts | 258° |
| 2026-05-01 12:05 | 38.37193 | -81.66086 | 23995 ft | 236 kts | 258° |
| 2026-05-01 12:05 | 38.36373 | -81.70140 | 23984 ft | 236 kts | 258° |
| 2026-05-01 12:05 | 38.35964 | -81.72161 | 23981 ft | 235 kts | 258° |
| 2026-05-01 12:06 | 38.35557 | -81.74169 | 23983 ft | 234 kts | 258° |
| 2026-05-01 12:06 | 38.35164 | -81.76174 | 23991 ft | 233 kts | 260° |
| 2026-05-01 12:06 | 38.34931 | -81.78205 | 23991 ft | 232 kts | 265° |
| 2026-05-01 12:06 | 38.34835 | -81.80252 | 23989 ft | 231 kts | 266° |
| 2026-05-01 12:07 | 38.34731 | -81.82298 | 23989 ft | 231 kts | 266° |
| 2026-05-01 12:07 | 38.34626 | -81.84345 | 23984 ft | 232 kts | 266° |
| 2026-05-01 12:07 | 38.34526 | -81.86392 | 23981 ft | 231 kts | 266° |
| 2026-05-01 12:07 | 38.34427 | -81.88438 | 23982 ft | 231 kts | 266° |
| 2026-05-01 12:08 | 38.34325 | -81.90482 | 23976 ft | 231 kts | 266° |
| 2026-05-01 12:08 | 38.34224 | -81.92525 | 23975 ft | 231 kts | 266° |
| 2026-05-01 12:08 | 38.34124 | -81.94544 | 23971 ft | 232 kts | 266° |
| 2026-05-01 12:08 | 38.34017 | -81.96590 | 23968 ft | 232 kts | 266° |
| 2026-05-01 12:09 | 38.33921 | -81.98640 | 23966 ft | 232 kts | 266° |
| 2026-05-01 12:09 | 38.33819 | -82.00687 | 23964 ft | 232 kts | 266° |
| 2026-05-01 12:09 | 38.33713 | -82.02733 | 23964 ft | 232 kts | 266° |
| 2026-05-01 12:09 | 38.33610 | -82.04779 | 23970 ft | 232 kts | 266° |
| 2026-05-01 12:10 | 38.33506 | -82.06826 | 23961 ft | 232 kts | 266° |
| 2026-05-01 12:10 | 38.33298 | -82.10912 | 23965 ft | 230 kts | 266° |
| 2026-05-01 12:10 | 38.33196 | -82.12946 | 23965 ft | 231 kts | 266° |
| 2026-05-01 12:11 | 38.32983 | -82.17023 | 23964 ft | 230 kts | 266° |
| 2026-05-01 12:11 | 38.32877 | -82.19061 | 23961 ft | 231 kts | 266° |
| 2026-05-01 12:11 | 38.32770 | -82.21101 | 23960 ft | 231 kts | 266° |
| 2026-05-01 12:12 | 38.32666 | -82.23140 | 23961 ft | 230 kts | 266° |
| 2026-05-01 12:12 | 38.32557 | -82.25174 | 23966 ft | 230 kts | 266° |
| 2026-05-01 12:12 | 38.32451 | -82.27210 | 23963 ft | 231 kts | 266° |
| 2026-05-01 12:12 | 38.32347 | -82.29249 | 23962 ft | 231 kts | 266° |
| 2026-05-01 12:13 | 38.32238 | -82.31290 | 23960 ft | 231 kts | 266° |
| 2026-05-01 12:13 | 38.32129 | -82.33332 | 23961 ft | 231 kts | 266° |
| 2026-05-01 12:13 | 38.32020 | -82.35378 | 23959 ft | 231 kts | 266° |
| 2026-05-01 12:13 | 38.31912 | -82.37423 | 23963 ft | 231 kts | 266° |
| 2026-05-01 12:14 | 38.31799 | -82.39471 | 23971 ft | 232 kts | 266° |
| 2026-05-01 12:14 | 38.31691 | -82.41521 | 23970 ft | 232 kts | 266° |
| 2026-05-01 12:14 | 38.31583 | -82.43547 | 23968 ft | 232 kts | 266° |
| 2026-05-01 12:14 | 38.31472 | -82.45599 | 23969 ft | 233 kts | 266° |
| 2026-05-01 12:15 | 38.31361 | -82.47653 | 23968 ft | 233 kts | 266° |
| 2026-05-01 12:15 | 38.31248 | -82.49706 | 23971 ft | 232 kts | 266° |
| 2026-05-01 12:15 | 38.31137 | -82.51757 | 23970 ft | 232 kts | 266° |
| 2026-05-01 12:15 | 38.31025 | -82.53807 | 23973 ft | 232 kts | 266° |
| 2026-05-01 12:16 | 38.30911 | -82.55856 | 23971 ft | 232 kts | 266° |
| 2026-05-01 12:16 | 38.30798 | -82.57909 | 23968 ft | 232 kts | 266° |
| 2026-05-01 12:16 | 38.30683 | -82.59957 | 23972 ft | 232 kts | 266° |
| 2026-05-01 12:16 | 38.30572 | -82.62004 | 23971 ft | 232 kts | 266° |
| 2026-05-01 12:17 | 38.30460 | -82.64050 | 23968 ft | 232 kts | 266° |
| 2026-05-01 12:17 | 38.30342 | -82.66096 | 23968 ft | 232 kts | 266° |
| 2026-05-01 12:17 | 38.30227 | -82.68143 | 23969 ft | 232 kts | 266° |
| 2026-05-01 12:17 | 38.30115 | -82.70191 | 23968 ft | 232 kts | 266° |
| 2026-05-01 12:18 | 38.29998 | -82.72238 | 23967 ft | 232 kts | 266° |
| 2026-05-01 12:18 | 38.29881 | -82.74285 | 23966 ft | 232 kts | 266° |
| 2026-05-01 12:18 | 38.29766 | -82.76331 | 23963 ft | 232 kts | 266° |
| 2026-05-01 12:18 | 38.29653 | -82.78376 | 23976 ft | 232 kts | 266° |
| 2026-05-01 12:19 | 38.29534 | -82.80422 | 23973 ft | 232 kts | 266° |
| 2026-05-01 12:19 | 38.29415 | -82.82469 | 23973 ft | 232 kts | 266° |
| 2026-05-01 12:19 | 38.29299 | -82.84521 | 23971 ft | 232 kts | 266° |
| 2026-05-01 12:19 | 38.29181 | -82.86571 | 23972 ft | 233 kts | 266° |
| 2026-05-01 12:20 | 38.29061 | -82.88625 | 23972 ft | 233 kts | 266° |
| 2026-05-01 12:20 | 38.28943 | -82.90680 | 23970 ft | 233 kts | 266° |
| 2026-05-01 12:20 | 38.28822 | -82.92734 | 23965 ft | 233 kts | 266° |
| 2026-05-01 12:20 | 38.28704 | -82.94789 | 23967 ft | 233 kts | 266° |
| 2026-05-01 12:21 | 38.28586 | -82.96841 | 23967 ft | 233 kts | 266° |
| 2026-05-01 12:21 | 38.28462 | -82.98894 | 23963 ft | 233 kts | 266° |
| 2026-05-01 12:21 | 38.28346 | -83.00946 | 23961 ft | 233 kts | 266° |
| 2026-05-01 12:21 | 38.28222 | -83.03000 | 23962 ft | 233 kts | 266° |
| 2026-05-01 12:22 | 38.28100 | -83.05049 | 23960 ft | 232 kts | 266° |
| 2026-05-01 12:22 | 38.27978 | -83.07103 | 23959 ft | 233 kts | 266° |
| 2026-05-01 12:22 | 38.27856 | -83.09157 | 23959 ft | 233 kts | 266° |
| 2026-05-01 12:22 | 38.27734 | -83.11211 | 23958 ft | 233 kts | 266° |
| 2026-05-01 12:23 | 38.27610 | -83.13264 | 23961 ft | 233 kts | 266° |
| 2026-05-01 12:23 | 38.27491 | -83.15317 | 23963 ft | 232 kts | 266° |
| 2026-05-01 12:23 | 38.27363 | -83.17367 | 23963 ft | 233 kts | 266° |
| 2026-05-01 12:23 | 38.27240 | -83.19418 | 23963 ft | 233 kts | 266° |
| 2026-05-01 12:24 | 38.27117 | -83.21471 | 23962 ft | 233 kts | 266° |
| 2026-05-01 12:24 | 38.26993 | -83.23522 | 23961 ft | 233 kts | 266° |
| 2026-05-01 12:24 | 38.26866 | -83.25575 | 23959 ft | 233 kts | 266° |
| 2026-05-01 12:24 | 38.26742 | -83.27626 | 23958 ft | 233 kts | 266° |
| 2026-05-01 12:25 | 38.26616 | -83.29678 | 23960 ft | 233 kts | 266° |
| 2026-05-01 12:25 | 38.26363 | -83.33784 | 23956 ft | 233 kts | 266° |
| 2026-05-01 12:25 | 38.26236 | -83.35837 | 23955 ft | 233 kts | 266° |
| 2026-05-01 12:26 | 38.26111 | -83.37866 | 23957 ft | 233 kts | 266° |
| 2026-05-01 12:26 | 38.25857 | -83.41978 | 23959 ft | 233 kts | 266° |
| 2026-05-01 12:26 | 38.25726 | -83.44033 | 23966 ft | 233 kts | 266° |
| 2026-05-01 12:27 | 38.25596 | -83.46085 | 23969 ft | 233 kts | 266° |
| 2026-05-01 12:27 | 38.25339 | -83.50184 | 23969 ft | 232 kts | 266° |
| 2026-05-01 12:28 | 38.25081 | -83.54282 | 23970 ft | 232 kts | 266° |
| 2026-05-01 12:28 | 38.24950 | -83.56329 | 23968 ft | 233 kts | 266° |
| 2026-05-01 12:28 | 38.24689 | -83.60431 | 23967 ft | 233 kts | 266° |
| 2026-05-01 12:29 | 38.24556 | -83.62486 | 23967 ft | 233 kts | 266° |
| 2026-05-01 12:29 | 38.24424 | -83.64539 | 23968 ft | 233 kts | 266° |
| 2026-05-01 12:29 | 38.24159 | -83.68647 | 23967 ft | 233 kts | 266° |
| 2026-05-01 12:30 | 38.23893 | -83.72756 | 23966 ft | 233 kts | 266° |
| 2026-05-01 12:30 | 38.23759 | -83.74809 | 23967 ft | 233 kts | 266° |
| 2026-05-01 12:30 | 38.23624 | -83.76863 | 23965 ft | 233 kts | 266° |
| 2026-05-01 12:31 | 38.23491 | -83.78915 | 23967 ft | 233 kts | 266° |
| 2026-05-01 12:31 | 38.23356 | -83.80967 | 23963 ft | 233 kts | 266° |
| 2026-05-01 12:31 | 38.23221 | -83.83022 | 23962 ft | 233 kts | 266° |
| 2026-05-01 12:31 | 38.23084 | -83.85078 | 23964 ft | 233 kts | 266° |
| 2026-05-01 12:32 | 38.22949 | -83.87130 | 23967 ft | 233 kts | 266° |
| 2026-05-01 12:32 | 38.22675 | -83.91238 | 23972 ft | 233 kts | 266° |
| 2026-05-01 12:32 | 38.22538 | -83.93294 | 23970 ft | 233 kts | 266° |
| 2026-05-01 12:33 | 38.22400 | -83.95351 | 23970 ft | 233 kts | 266° |
| 2026-05-01 12:33 | 38.22262 | -83.97408 | 23969 ft | 234 kts | 266° |
| 2026-05-01 12:33 | 38.22125 | -83.99467 | 23969 ft | 234 kts | 266° |
| 2026-05-01 12:33 | 38.21985 | -84.01527 | 23968 ft | 234 kts | 266° |
| 2026-05-01 12:34 | 38.21845 | -84.03585 | 23968 ft | 234 kts | 266° |
| 2026-05-01 12:34 | 38.21707 | -84.05644 | 23969 ft | 234 kts | 266° |
| 2026-05-01 12:34 | 38.21567 | -84.07700 | 23969 ft | 234 kts | 266° |
| 2026-05-01 12:34 | 38.21427 | -84.09759 | 23966 ft | 234 kts | 266° |
| 2026-05-01 12:35 | 38.21286 | -84.11817 | 23966 ft | 234 kts | 266° |
| 2026-05-01 12:35 | 38.21145 | -84.13875 | 23967 ft | 234 kts | 266° |
| 2026-05-01 12:35 | 38.21003 | -84.15934 | 23963 ft | 234 kts | 266° |
| 2026-05-01 12:35 | 38.20862 | -84.17992 | 23964 ft | 234 kts | 266° |
| 2026-05-01 12:36 | 38.20722 | -84.20023 | 23962 ft | 234 kts | 266° |
| 2026-05-01 12:36 | 38.20579 | -84.22080 | 23960 ft | 234 kts | 266° |
| 2026-05-01 12:36 | 38.20436 | -84.24139 | 23957 ft | 234 kts | 266° |
| 2026-05-01 12:36 | 38.20293 | -84.26197 | 23956 ft | 234 kts | 266° |
| 2026-05-01 12:37 | 38.20149 | -84.28253 | 23954 ft | 234 kts | 266° |
| 2026-05-01 12:37 | 38.20005 | -84.30310 | 23955 ft | 234 kts | 266° |
| 2026-05-01 12:37 | 38.19860 | -84.32370 | 23951 ft | 234 kts | 266° |
| 2026-05-01 12:37 | 38.19715 | -84.34431 | 23950 ft | 234 kts | 266° |
| 2026-05-01 12:38 | 38.19570 | -84.36493 | 23947 ft | 234 kts | 266° |
| 2026-05-01 12:38 | 38.19424 | -84.38556 | 23950 ft | 235 kts | 266° |
| 2026-05-01 12:38 | 38.19277 | -84.40621 | 23950 ft | 235 kts | 266° |
| 2026-05-01 12:38 | 38.19130 | -84.42690 | 23952 ft | 235 kts | 266° |
| 2026-05-01 12:39 | 38.18982 | -84.44758 | 23951 ft | 235 kts | 266° |
| 2026-05-01 12:39 | 38.18834 | -84.46827 | 23953 ft | 235 kts | 266° |
| 2026-05-01 12:39 | 38.18687 | -84.48895 | 23953 ft | 235 kts | 266° |
| 2026-05-01 12:39 | 38.18537 | -84.50967 | 23955 ft | 235 kts | 266° |
| 2026-05-01 12:40 | 38.18388 | -84.53033 | 23953 ft | 235 kts | 266° |
| 2026-05-01 12:40 | 38.18239 | -84.55104 | 23952 ft | 235 kts | 266° |
| 2026-05-01 12:40 | 38.18089 | -84.57175 | 23954 ft | 235 kts | 266° |
| 2026-05-01 12:40 | 38.17939 | -84.59249 | 23894 ft | 237 kts | 266° |
| 2026-05-01 12:41 | 38.17788 | -84.61373 | 23614 ft | 246 kts | 266° |
| 2026-05-01 12:41 | 38.17630 | -84.63576 | 23246 ft | 254 kts | 266° |
| 2026-05-01 12:41 | 38.17466 | -84.65829 | 22896 ft | 258 kts | 266° |
| 2026-05-01 12:41 | 38.17298 | -84.68118 | 22554 ft | 262 kts | 266° |
| 2026-05-01 12:42 | 38.17128 | -84.70430 | 22207 ft | 264 kts | 266° |
| 2026-05-01 12:42 | 38.16957 | -84.72755 | 21845 ft | 265 kts | 266° |
| 2026-05-01 12:42 | 38.16784 | -84.75094 | 21497 ft | 267 kts | 266° |
| 2026-05-01 12:42 | 38.16610 | -84.77450 | 21149 ft | 268 kts | 266° |
| 2026-05-01 12:43 | 38.16435 | -84.79814 | 20798 ft | 269 kts | 266° |
| 2026-05-01 12:43 | 38.16256 | -84.82187 | 20447 ft | 271 kts | 266° |
| 2026-05-01 12:43 | 38.16079 | -84.84573 | 20098 ft | 271 kts | 266° |
| 2026-05-01 12:43 | 38.15899 | -84.86962 | 19742 ft | 272 kts | 266° |
| 2026-05-01 12:44 | 38.15718 | -84.89360 | 19392 ft | 273 kts | 266° |
| 2026-05-01 12:44 | 38.15538 | -84.91763 | 19040 ft | 274 kts | 266° |
| 2026-05-01 12:44 | 38.15172 | -84.96590 | 18331 ft | 275 kts | 266° |
| 2026-05-01 12:45 | 38.14805 | -85.01424 | 17581 ft | 274 kts | 265° |
| 2026-05-01 12:45 | 38.14622 | -85.03832 | 17231 ft | 274 kts | 265° |
| 2026-05-01 12:45 | 38.14440 | -85.06200 | 16879 ft | 273 kts | 266° |
| 2026-05-01 12:46 | 38.14257 | -85.08594 | 16522 ft | 272 kts | 265° |
| 2026-05-01 12:46 | 38.14073 | -85.10980 | 16168 ft | 271 kts | 265° |
| 2026-05-01 12:46 | 38.13888 | -85.13364 | 15821 ft | 271 kts | 265° |
| 2026-05-01 12:46 | 38.13705 | -85.15742 | 15470 ft | 271 kts | 265° |
| 2026-05-01 12:47 | 38.13520 | -85.18122 | 15119 ft | 271 kts | 265° |
| 2026-05-01 12:47 | 38.13336 | -85.20501 | 14766 ft | 271 kts | 265° |
| 2026-05-01 12:47 | 38.13150 | -85.22883 | 14414 ft | 271 kts | 265° |
| 2026-05-01 12:47 | 38.12962 | -85.25260 | 14066 ft | 270 kts | 265° |
| 2026-05-01 12:48 | 38.12777 | -85.27634 | 13702 ft | 268 kts | 265° |
| 2026-05-01 12:48 | 38.12601 | -85.29897 | 13380 ft | 249 kts | 265° |
| 2026-05-01 12:48 | 38.12421 | -85.32026 | 13082 ft | 238 kts | 264° |
| 2026-05-01 12:48 | 38.12252 | -85.34082 | 12794 ft | 231 kts | 265° |
| 2026-05-01 12:49 | 38.12096 | -85.36098 | 12503 ft | 228 kts | 265° |
| 2026-05-01 12:49 | 38.11943 | -85.38090 | 12221 ft | 226 kts | 264° |
| 2026-05-01 12:49 | 38.11786 | -85.40063 | 11938 ft | 225 kts | 264° |
| 2026-05-01 12:49 | 38.11630 | -85.42037 | 11649 ft | 224 kts | 264° |
| 2026-05-01 12:50 | 38.11474 | -85.44003 | 11360 ft | 223 kts | 264° |
| 2026-05-01 12:50 | 38.11316 | -85.45961 | 11067 ft | 223 kts | 264° |
| 2026-05-01 12:50 | 38.11159 | -85.47917 | 10779 ft | 223 kts | 264° |
| 2026-05-01 12:50 | 38.11002 | -85.49874 | 10491 ft | 223 kts | 264° |
| 2026-05-01 12:51 | 38.10719 | -85.51802 | 10192 ft | 223 kts | 254° |
| 2026-05-01 12:51 | 38.10366 | -85.53022 | 9989 ft | 223 kts | 249° |
| 2026-05-01 12:51 | 38.08598 | -85.56272 | 9392 ft | 227 kts | 229° |
| 2026-05-01 12:52 | 38.07358 | -85.57534 | 9092 ft | 231 kts | 219° |
| 2026-05-01 12:52 | 38.04321 | -85.59051 | 8479 ft | 241 kts | 197° |
| 2026-05-01 12:52 | 38.02655 | -85.59381 | 8170 ft | 242 kts | 196° |
| 2026-05-01 12:53 | 37.99325 | -85.60087 | 7533 ft | 243 kts | 197° |
| 2026-05-01 12:53 | 37.97659 | -85.60435 | 7212 ft | 243 kts | 196° |
| 2026-05-01 12:53 | 37.95992 | -85.60781 | 6898 ft | 243 kts | 196° |
| 2026-05-01 12:54 | 37.94330 | -85.61130 | 6580 ft | 242 kts | 196° |
| 2026-05-01 12:54 | 37.91012 | -85.61823 | 5926 ft | 241 kts | 196° |
| 2026-05-01 12:54 | 37.89358 | -85.62168 | 5607 ft | 240 kts | 196° |
| 2026-05-01 12:55 | 37.86063 | -85.62858 | 4970 ft | 241 kts | 195° |
| 2026-05-01 12:55 | 37.84409 | -85.63209 | 4653 ft | 241 kts | 196° |
| 2026-05-01 12:55 | 37.82751 | -85.63555 | 4327 ft | 241 kts | 195° |
| 2026-05-01 12:56 | 37.81097 | -85.63886 | 4015 ft | 240 kts | 197° |
| 2026-05-01 12:56 | 37.79556 | -85.64513 | 3703 ft | 233 kts | 211° |
| 2026-05-01 12:56 | 37.78201 | -85.65574 | 3402 ft | 227 kts | 224° |
| 2026-05-01 12:56 | 37.77086 | -85.66958 | 3088 ft | 224 kts | 231° |
| 2026-05-01 12:57 | 37.76038 | -85.68329 | 2822 ft | 199 kts | 232° |
| 2026-05-01 12:57 | 37.74859 | -85.70882 | 2471 ft | 139 kts | 252° |
| 2026-05-01 12:57 | 37.74624 | -85.72026 | 2485 ft | 136 kts | 259° |
| 2026-05-01 12:58 | 37.74532 | -85.73204 | 2505 ft | 134 kts | 266° |
| 2026-05-01 12:58 | 37.74470 | -85.74369 | 2500 ft | 132 kts | 265° |
| 2026-05-01 12:58 | 37.74418 | -85.75523 | 2501 ft | 132 kts | 266° |
| 2026-05-01 12:59 | 37.74318 | -85.77865 | 2499 ft | 135 kts | 266° |
| 2026-05-01 12:59 | 37.74263 | -85.79046 | 2504 ft | 135 kts | 266° |
| 2026-05-01 12:59 | 37.74149 | -85.81456 | 2502 ft | 139 kts | 266° |
| 2026-05-01 13:00 | 37.73556 | -85.83714 | 2336 ft | 143 kts | 239° |
| 2026-05-01 13:00 | 37.72992 | -85.84772 | 2139 ft | 148 kts | 239° |
| 2026-05-01 13:01 | 37.71848 | -85.86970 | 1732 ft | 138 kts | 237° |
| 2026-05-01 13:01 | 37.71426 | -85.87761 | 1557 ft | 95 kts | 237° |
| 2026-05-01 13:01 | 37.70709 | -85.89137 | 1296 ft | 94 kts | 238° |
| 2026-05-01 13:02 | 37.70342 | -85.89827 | 1171 ft | 95 kts | 237° |